Butterfly — C6UP2 — position and weather

sailwx.info

Track history (hours):
 
Tides and Currents Weather Stations Pressure Air Temp Water Temp Dewpoint Dewpoint Depression Visibility Wind Speed Wind Dir Waves Ship Positions

Butterfly

Last reported at 2016-Jun-27 12:34 UTC. Time now 2016-Jun-27 13:16 UTC.
Position N 09°18' W 079°55'.

; draft 9.2 m.

Type: Tanker. MMSI: 311985000.

Date/timePositionNaut miles runAvg speedWind from/ knotsBaromVisibWave heightAir tempDewpointWater temp
2016-Jun-27 12:34N 09°18' W 079°55'5 4.5
2016-Jun-27 11:31N 09°23' W 079°56'0 0.0
2016-Jun-27 10:31N 09°23' W 079°56'0 0.0
2016-Jun-27 09:31N 09°23' W 079°56'0 0.0
2016-Jun-27 08:30N 09°23' W 079°56'0 0.0
2016-Jun-27 07:34N 09°23' W 079°56'0 0.0
2016-Jun-27 06:31N 09°23' W 079°56'0 0.0
2016-Jun-27 05:31N 09°23' W 079°56'0 0.0
2016-Jun-27 04:32N 09°23' W 079°56'0 0.0
2016-Jun-27 03:31N 09°23' W 079°56'0 0.0
2016-Jun-27 02:31N 09°23' W 079°56'0 0.0
2016-Jun-27 01:29N 09°23' W 079°56'0 0.0
2016-Jun-27 00:29N 09°23' W 079°56'0 0.0
2016-Jun-26 23:31N 09°23' W 079°56'0 0.0
2016-Jun-26 22:31N 09°23' W 079°56'0 0.0
2016-Jun-26 21:31N 09°23' W 079°56'0 0.0
2016-Jun-26 20:32N 09°23' W 079°56'0 0.1
2016-Jun-26 19:28N 09°23' W 079°56'0 0.0
2016-Jun-26 18:31N 09°23' W 079°56'0 0.1
2016-Jun-26 17:31N 09°23' W 079°56'0 0.0
2016-Jun-26 16:25N 09°23' W 079°56'0 0.0
2016-Jun-26 15:31N 09°23' W 079°56'0 0.0
2016-Jun-26 14:31N 09°23' W 079°56'3 3.3
2016-Jun-26 13:33N 09°26' W 079°55'1 1.3
2016-Jun-26 12:32N 09°26' W 079°57'0 0.0
2016-Jun-26 11:26N 09°26' W 079°56'0 0.0
2016-Jun-26 10:31N 09°26' W 079°57'0 0.0
2016-Jun-26 09:31N 09°26' W 079°56'0 0.0
2016-Jun-26 08:32N 09°26' W 079°56'0 0.0
2016-Jun-26 07:32N 09°26' W 079°56'0 0.0
2016-Jun-26 06:29N 09°26' W 079°57'0 0.0
2016-Jun-26 05:32N 09°26' W 079°56'0 0.0
2016-Jun-26 04:32N 09°26' W 079°56'0 0.0
2016-Jun-26 03:31N 09°26' W 079°56'0 0.0
2016-Jun-26 02:33N 09°26' W 079°56'0 0.0
2016-Jun-26 01:29N 09°26' W 079°56'0 0.0
2016-Jun-26 00:33N 09°26' W 079°56'0 0.0
2016-Jun-25 23:29N 09°26' W 079°56'0 0.0
2016-Jun-25 22:28N 09°26' W 079°56'0 0.0
2016-Jun-25 21:31N 09°26' W 079°56'0 0.0
2016-Jun-25 20:32N 09°26' W 079°56'0 0.0
2016-Jun-25 19:28N 09°26' W 079°56'0 0.0
2016-Jun-25 18:29N 09°26' W 079°56'0 0.0
2016-Jun-25 17:29N 09°26' W 079°56'0 0.0
2016-Jun-25 16:31N 09°26' W 079°56'0 0.0
2016-Jun-25 15:32N 09°26' W 079°56'0 0.0
2016-Jun-25 14:26N 09°26' W 079°56'0 0.0
2016-Jun-25 13:26N 09°26' W 079°57'0 0.0
2016-Jun-25 12:19N 09°26' W 079°57'0 0.0
2016-Jun-25 11:28N 09°26' W 079°56'2 1.9
2016-Jun-25 10:33N 09°27' W 079°55'9 9.3
2016-Jun-25 09:33N 09°36' W 079°52'1111.1
2016-Jun-25 08:33N 09°46' W 079°46'  
2016-Jun-19 18:09N 10°51' W 061°51'813.4
2016-Jun-19 17:33N 10°45' W 061°46'1212.3
2016-Jun-19 16:34N 10°33' W 061°43'1212.2
2016-Jun-19 15:33N 10°22' W 061°37'6 5.7
2016-Jun-19 14:30N 10°19' W 061°32'0 0.1
2016-Jun-19 13:33N 10°19' W 061°32'0 0.0
2016-Jun-19 12:33N 10°19' W 061°32'0 0.0
2016-Jun-19 11:33N 10°19' W 061°32'0 0.1
2016-Jun-19 10:34N 10°19' W 061°32'3 0.1
2016-Jun-17 23:33N 10°19' W 061°29'3 2.7
2016-Jun-17 22:33N 10°19' W 061°32'0 0.0
2016-Jun-17 21:33N 10°19' W 061°32'0 0.0
2016-Jun-17 20:33N 10°19' W 061°32'0 0.0
2016-Jun-17 19:33N 10°19' W 061°32'0 0.0
2016-Jun-17 18:33N 10°19' W 061°32'0 0.0
2016-Jun-17 17:33N 10°19' W 061°32'0 0.0
2016-Jun-17 16:33N 10°19' W 061°31'0 0.0
2016-Jun-17 15:30N 10°19' W 061°31'0 0.0
2016-Jun-17 14:33N 10°19' W 061°31'0 0.0
2016-Jun-17 13:33N 10°19' W 061°31'  
Track history (hours):
 
Tides and Currents Weather Stations Pressure Air Temp Water Temp Dewpoint Dewpoint Depression Visibility Wind Speed Wind Dir Waves Ship Positions

Butterfly

Last reported at 2016-Jun-27 12:34 UTC. Time now 2016-Jun-27 13:16 UTC.
Position N 09°18' W 079°55'.

; draft 9.2 m.

Type: Tanker. MMSI: 311985000.

Date/timePositionNaut miles runAvg speedWind from/ knotsBaromVisibWave heightAir tempDewpointWater temp
2016-Jun-27 12:34N 09°18' W 079°55'5 4.5
2016-Jun-27 11:31N 09°23' W 079°56'0 0.0
2016-Jun-27 10:31N 09°23' W 079°56'0 0.0
2016-Jun-27 09:31N 09°23' W 079°56'0 0.0
2016-Jun-27 08:30N 09°23' W 079°56'0 0.0
2016-Jun-27 07:34N 09°23' W 079°56'0 0.0
2016-Jun-27 06:31N 09°23' W 079°56'0 0.0
2016-Jun-27 05:31N 09°23' W 079°56'0 0.0
2016-Jun-27 04:32N 09°23' W 079°56'0 0.0
2016-Jun-27 03:31N 09°23' W 079°56'0 0.0
2016-Jun-27 02:31N 09°23' W 079°56'0 0.0
2016-Jun-27 01:29N 09°23' W 079°56'0 0.0
2016-Jun-27 00:29N 09°23' W 079°56'0 0.0
2016-Jun-26 23:31N 09°23' W 079°56'0 0.0
2016-Jun-26 22:31N 09°23' W 079°56'0 0.0
2016-Jun-26 21:31N 09°23' W 079°56'0 0.0
2016-Jun-26 20:32N 09°23' W 079°56'0 0.1
2016-Jun-26 19:28N 09°23' W 079°56'0 0.0
2016-Jun-26 18:31N 09°23' W 079°56'0 0.1
2016-Jun-26 17:31N 09°23' W 079°56'0 0.0
2016-Jun-26 16:25N 09°23' W 079°56'0 0.0
2016-Jun-26 15:31N 09°23' W 079°56'0 0.0
2016-Jun-26 14:31N 09°23' W 079°56'3 3.3
2016-Jun-26 13:33N 09°26' W 079°55'1 1.3
2016-Jun-26 12:32N 09°26' W 079°57'0 0.0
2016-Jun-26 11:26N 09°26' W 079°56'0 0.0
2016-Jun-26 10:31N 09°26' W 079°57'0 0.0
2016-Jun-26 09:31N 09°26' W 079°56'0 0.0
2016-Jun-26 08:32N 09°26' W 079°56'0 0.0
2016-Jun-26 07:32N 09°26' W 079°56'0 0.0
2016-Jun-26 06:29N 09°26' W 079°57'0 0.0
2016-Jun-26 05:32N 09°26' W 079°56'0 0.0
2016-Jun-26 04:32N 09°26' W 079°56'0 0.0
2016-Jun-26 03:31N 09°26' W 079°56'0 0.0
2016-Jun-26 02:33N 09°26' W 079°56'0 0.0
2016-Jun-26 01:29N 09°26' W 079°56'0 0.0
2016-Jun-26 00:33N 09°26' W 079°56'0 0.0
2016-Jun-25 23:29N 09°26' W 079°56'0 0.0
2016-Jun-25 22:28N 09°26' W 079°56'0 0.0
2016-Jun-25 21:31N 09°26' W 079°56'0 0.0
2016-Jun-25 20:32N 09°26' W 079°56'0 0.0
2016-Jun-25 19:28N 09°26' W 079°56'0 0.0
2016-Jun-25 18:29N 09°26' W 079°56'0 0.0
2016-Jun-25 17:29N 09°26' W 079°56'0 0.0
2016-Jun-25 16:31N 09°26' W 079°56'0 0.0
2016-Jun-25 15:32N 09°26' W 079°56'0 0.0
2016-Jun-25 14:26N 09°26' W 079°56'0 0.0
2016-Jun-25 13:26N 09°26' W 079°57'0 0.0
2016-Jun-25 12:19N 09°26' W 079°57'0 0.0
2016-Jun-25 11:28N 09°26' W 079°56'2 1.9
2016-Jun-25 10:33N 09°27' W 079°55'9 9.3
2016-Jun-25 09:33N 09°36' W 079°52'1111.1
2016-Jun-25 08:33N 09°46' W 079°46'  
2016-Jun-19 18:09N 10°51' W 061°51'813.4
2016-Jun-19 17:33N 10°45' W 061°46'1212.3
2016-Jun-19 16:34N 10°33' W 061°43'1212.2
2016-Jun-19 15:33N 10°22' W 061°37'6 5.7
2016-Jun-19 14:30N 10°19' W 061°32'0 0.1
2016-Jun-19 13:33N 10°19' W 061°32'0 0.0
2016-Jun-19 12:33N 10°19' W 061°32'0 0.0
2016-Jun-19 11:33N 10°19' W 061°32'0 0.1
2016-Jun-19 10:34N 10°19' W 061°32'3 0.1
2016-Jun-17 23:33N 10°19' W 061°29'3 2.7
2016-Jun-17 22:33N 10°19' W 061°32'0 0.0
2016-Jun-17 21:33N 10°19' W 061°32'0 0.0
2016-Jun-17 20:33N 10°19' W 061°32'0 0.0
2016-Jun-17 19:33N 10°19' W 061°32'0 0.0
2016-Jun-17 18:33N 10°19' W 061°32'0 0.0
2016-Jun-17 17:33N 10°19' W 061°32'0 0.0
2016-Jun-17 16:33N 10°19' W 061°31'0 0.0
2016-Jun-17 15:30N 10°19' W 061°31'0 0.0
2016-Jun-17 14:33N 10°19' W 061°31'0 0.0
2016-Jun-17 13:33N 10°19' W 061°31'  

Dump ship's entire track history